Time;durP1;ratioP1;P1;durP2;ratioP2;P2;SDS_P1;SDS_P2;PMS_P1;PMS_P2;Temp;Humidity;BMP_temperature;BMP_pressure;BME280_temperature;BME280_humidity;BME280_pressure;Samples;Min_cycle;Max_cycle;Signal;HPM_P1;HPM_P2
2023/10/28 00:00:45;;;;;;;22.45;7.20;;;11.10;99.90;;;;;;5063751;28;20070;-77
2023/10/28 00:03:11;;;;;;;17.83;6.88;;;11.10;99.90;;;;;;5057688;28;20028;-77
2023/10/28 00:05:37;;;;;;;18.52;6.47;;;11.10;99.90;;;;;;5056022;28;20052;-76
2023/10/28 00:08:03;;;;;;;25.65;6.47;;;11.00;99.90;;;;;;5063773;28;20057;-76
2023/10/28 00:10:33;;;;;;;21.13;7.22;;;11.00;99.90;;;;;;5059887;28;20028;-76
2023/10/28 00:13:02;;;;;;;28.23;7.07;;;11.00;99.90;;;;;;5055820;28;20070;-79
2023/10/28 00:15:27;;;;;;;22.23;6.63;;;11.00;99.90;;;;;;5058227;28;20047;-76
2023/10/28 00:17:53;;;;;;;18.30;6.50;;;11.00;99.90;;;;;;5052419;28;20032;-77
2023/10/28 00:20:19;;;;;;;19.10;7.43;;;11.00;99.90;;;;;;5060403;28;20013;-77
2023/10/28 00:22:46;;;;;;;17.85;6.53;;;11.00;99.90;;;;;;5063995;28;20031;-75
2023/10/28 00:25:13;;;;;;;18.27;7.28;;;11.00;99.90;;;;;;5054746;28;20655;-76
2023/10/28 00:27:40;;;;;;;21.58;6.45;;;11.00;99.90;;;;;;5055017;28;20032;-76
2023/10/28 00:30:11;;;;;;;21.55;7.30;;;11.00;99.90;;;;;;5063020;28;20028;-77
2023/10/28 00:32:37;;;;;;;26.98;8.13;;;11.00;99.90;;;;;;5060895;28;20107;-76
2023/10/28 00:35:08;;;;;;;17.92;6.50;;;11.00;99.90;;;;;;5052593;28;20108;-76
2023/10/28 00:37:34;;;;;;;22.67;7.27;;;11.00;99.90;;;;;;5057582;28;20533;-76
2023/10/28 00:40:00;;;;;;;18.48;6.95;;;11.00;99.90;;;;;;5062762;28;20021;-76
2023/10/28 00:42:25;;;;;;;19.65;6.32;;;11.00;99.90;;;;;;5057970;28;20009;-76
2023/10/28 00:44:54;;;;;;;17.52;6.70;;;11.00;99.90;;;;;;5054504;28;20017;-77
2023/10/28 00:47:22;;;;;;;26.08;7.50;;;11.00;99.90;;;;;;5062165;28;20095;-76
2023/10/28 00:49:50;;;;;;;19.80;6.38;;;11.00;99.90;;;;;;5060752;28;20034;-76
2023/10/28 00:52:17;;;;;;;20.65;6.40;;;11.00;99.90;;;;;;5053229;28;20052;-76
2023/10/28 00:54:43;;;;;;;25.70;7.78;;;11.00;99.90;;;;;;5056492;28;20071;-77
2023/10/28 00:57:09;;;;;;;19.05;6.68;;;11.00;99.90;;;;;;5054725;28;20052;-76
2023/10/28 00:59:34;;;;;;;17.08;6.28;;;11.00;99.90;;;;;;5062047;28;20561;-76
2023/10/28 01:02:00;;;;;;;19.80;6.57;;;11.00;99.90;;;;;;5059635;28;20040;-77
2023/10/28 01:04:26;;;;;;;17.75;5.90;;;11.00;99.90;;;;;;5053087;28;20021;-77
2023/10/28 01:06:52;;;;;;;27.77;7.10;;;11.00;99.90;;;;;;5058895;28;20866;-76
2023/10/28 01:09:18;;;;;;;21.55;7.05;;;11.00;99.90;;;;;;5062114;28;20371;-77
2023/10/28 01:11:44;;;;;;;20.23;6.03;;;11.00;99.90;;;;;;5056664;28;20025;-76
2023/10/28 01:14:11;;;;;;;16.23;6.00;;;11.00;99.90;;;;;;5054355;28;20039;-76
2023/10/28 01:16:37;;;;;;;23.35;7.07;;;11.00;99.90;;;;;;5061884;28;20033;-77
2023/10/28 01:19:03;;;;;;;20.10;6.65;;;11.00;99.90;;;;;;5048432;28;20017;-77
2023/10/28 01:21:30;;;;;;;27.08;7.07;;;11.00;99.90;;;;;;5060705;28;20032;-77
2023/10/28 01:23:56;;;;;;;19.73;6.40;;;11.00;99.90;;;;;;5058696;28;20024;-77
2023/10/28 01:26:22;;;;;;;19.30;6.90;;;11.00;99.90;;;;;;5054940;28;20104;-76
2023/10/28 01:28:48;;;;;;;20.60;7.18;;;11.00;99.90;;;;;;5058872;28;20040;-76
2023/10/28 01:31:16;;;;;;;19.45;7.10;;;11.00;99.90;;;;;;5042578;28;20029;-76
2023/10/28 01:33:42;;;;;;;18.35;5.75;;;11.00;99.90;;;;;;5061809;28;20025;-77
2023/10/28 01:36:08;;;;;;;19.90;6.35;;;11.00;99.90;;;;;;5060642;28;20554;-76
2023/10/28 01:38:35;;;;;;;17.70;5.63;;;11.00;99.90;;;;;;5056966;28;20572;-76
2023/10/28 01:41:02;;;;;;;16.80;5.43;;;11.00;99.90;;;;;;5057413;28;20025;-76
2023/10/28 01:43:31;;;;;;;17.23;5.10;;;11.00;99.90;;;;;;5062290;28;20020;-77
2023/10/28 01:45:57;;;;;;;18.13;5.25;;;11.00;99.90;;;;;;5058175;28;20103;-76
2023/10/28 01:48:23;;;;;;;26.23;6.35;;;11.00;99.90;;;;;;5054323;28;20562;-77
2023/10/28 01:50:48;;;;;;;17.70;5.85;;;11.10;99.90;;;;;;5059200;28;20025;-74
2023/10/28 01:53:14;;;;;;;16.83;5.30;;;11.10;99.90;;;;;;5053270;28;20021;-76
2023/10/28 01:55:40;;;;;;;22.85;6.13;;;11.10;99.90;;;;;;5049322;28;20036;-76
2023/10/28 01:58:06;;;;;;;16.05;5.70;;;11.10;99.90;;;;;;5058652;28;20025;-76
2023/10/28 02:00:32;;;;;;;19.00;5.85;;;11.10;99.90;;;;;;5062378;28;20070;-76
2023/10/28 02:02:57;;;;;;;15.40;5.15;;;11.10;99.90;;;;;;5055093;28;20028;-77
2023/10/28 02:05:24;;;;;;;20.23;6.10;;;11.10;99.90;;;;;;5055215;28;20490;-77
2023/10/28 02:07:50;;;;;;;13.98;4.88;;;11.10;99.90;;;;;;5061667;28;20035;-77
2023/10/28 02:10:16;;;;;;;15.73;5.32;;;11.10;99.90;;;;;;5057139;28;20028;-77
2023/10/28 02:12:41;;;;;;;13.82;5.18;;;11.10;99.90;;;;;;5053357;28;20028;-77
2023/10/28 02:15:08;;;;;;;19.70;5.75;;;11.10;99.90;;;;;;5058959;28;20020;-77
2023/10/28 02:17:38;;;;;;;12.60;4.75;;;11.10;99.90;;;;;;5059892;28;20035;-76
2023/10/28 02:20:05;;;;;;;23.60;5.40;;;11.10;99.90;;;;;;5053636;28;20017;-76
2023/10/28 02:22:31;;;;;;;14.88;5.30;;;11.10;99.90;;;;;;5054332;28;20070;-76
2023/10/28 02:24:58;;;;;;;16.73;5.13;;;11.10;99.90;;;;;;5060803;28;20470;-76
2023/10/28 02:27:23;;;;;;;19.73;5.78;;;11.10;99.90;;;;;;5058097;28;20024;-78
2023/10/28 02:29:49;;;;;;;16.63;5.00;;;11.10;99.90;;;;;;5052581;28;20020;-77
2023/10/28 02:32:15;;;;;;;14.68;4.78;;;11.10;99.90;;;;;;5058096;28;20029;-77
2023/10/28 02:34:43;;;;;;;12.05;4.55;;;11.10;99.90;;;;;;5060823;28;20017;-76
2023/10/28 02:37:10;;;;;;;20.60;4.78;;;11.10;99.90;;;;;;5054179;28;20024;-76
2023/10/28 02:39:37;;;;;;;18.55;5.50;;;11.10;99.90;;;;;;5053138;28;20021;-76
2023/10/28 02:42:03;;;;;;;12.57;4.13;;;11.10;99.90;;;;;;5060861;28;20370;-77
2023/10/28 02:44:33;;;;;;;15.32;4.50;;;11.10;99.90;;;;;;5055017;28;20544;-76
2023/10/28 02:46:59;;;;;;;17.02;4.65;;;11.10;99.90;;;;;;5059792;28;20013;-76
2023/10/28 02:49:25;;;;;;;14.00;4.30;;;11.10;99.90;;;;;;5055535;28;20029;-76
2023/10/28 02:51:51;;;;;;;14.63;4.72;;;11.10;99.90;;;;;;5052398;28;20021;-75
2023/10/28 02:54:17;;;;;;;13.02;4.20;;;11.10;99.90;;;;;;5052499;28;20025;-76
2023/10/28 02:56:42;;;;;;;18.70;4.18;;;11.00;99.90;;;;;;5055242;28;20045;-77
2023/10/28 02:59:10;;;;;;;12.13;4.00;;;11.00;99.90;;;;;;5060909;28;20599;-76
2023/10/28 03:01:39;;;;;;;13.82;3.60;;;11.10;99.90;;;;;;5045197;28;20025;-76
2023/10/28 03:04:05;;;;;;;11.80;4.10;;;11.10;99.90;;;;;;5060803;28;20113;-77
2023/10/28 03:06:32;;;;;;;17.17;3.92;;;11.10;99.90;;;;;;5051949;28;20017;-77
2023/10/28 03:08:58;;;;;;;10.43;4.10;;;11.10;99.90;;;;;;5053491;28;20052;-77
2023/10/28 03:11:24;;;;;;;11.43;3.67;;;11.10;99.90;;;;;;5060279;28;20036;-76
2023/10/28 03:13:49;;;;;;;13.20;3.20;;;11.10;99.90;;;;;;5058359;28;20024;-77
2023/10/28 03:16:15;;;;;;;14.10;4.10;;;11.10;99.90;;;;;;5052143;28;20031;-77
2023/10/28 03:18:41;;;;;;;12.45;4.18;;;11.10;99.90;;;;;;5057697;28;20386;-77
2023/10/28 03:21:06;;;;;;;18.10;4.28;;;11.10;99.90;;;;;;5059962;28;20490;-76
2023/10/28 03:23:32;;;;;;;13.68;4.32;;;11.10;99.90;;;;;;5055118;28;20104;-76
2023/10/28 03:25:58;;;;;;;13.82;4.07;;;11.10;99.90;;;;;;5057857;28;20040;-76
2023/10/28 03:28:24;;;;;;;10.50;3.58;;;11.10;99.90;;;;;;5052307;28;20016;-76
2023/10/28 03:30:50;;;;;;;11.27;4.13;;;11.10;99.90;;;;;;5053158;28;20036;-76
2023/10/28 03:33:16;;;;;;;13.02;4.15;;;11.10;99.90;;;;;;5060577;28;20032;-76
2023/10/28 03:35:41;;;;;;;10.40;4.03;;;11.10;99.90;;;;;;5055381;28;20230;-76
2023/10/28 03:38:07;;;;;;;9.10;3.60;;;11.10;99.90;;;;;;5052288;28;20104;-76
2023/10/28 03:40:32;;;;;;;12.63;4.43;;;11.00;99.90;;;;;;5058242;28;20397;-76
2023/10/28 03:42:58;;;;;;;13.52;4.20;;;11.00;99.90;;;;;;5059634;28;20044;-77
2023/10/28 03:45:24;;;;;;;9.77;3.58;;;11.00;99.90;;;;;;5049980;28;20016;-76
2023/10/28 03:47:50;;;;;;;11.45;3.83;;;11.00;99.90;;;;;;5054734;28;20104;-77
2023/10/28 03:50:15;;;;;;;8.52;3.30;;;11.00;99.90;;;;;;5059903;28;20147;-77
2023/10/28 03:52:41;;;;;;;10.48;3.33;;;11.00;99.90;;;;;;5050271;28;20021;-76
2023/10/28 03:55:07;;;;;;;9.43;3.90;;;10.90;99.90;;;;;;5057195;28;20016;-76
2023/10/28 03:57:33;;;;;;;7.47;2.92;;;10.90;99.90;;;;;;5050680;28;20067;-77
2023/10/28 03:59:59;;;;;;;10.15;2.97;;;10.90;99.90;;;;;;5056630;28;20044;-77
2023/10/28 04:02:25;;;;;;;6.38;3.50;;;10.90;99.90;;;;;;5058477;28;20082;-77
2023/10/28 04:04:54;;;;;;;7.25;2.90;;;10.90;99.90;;;;;;5053596;28;20504;-77
2023/10/28 04:07:21;;;;;;;7.30;3.03;;;10.90;99.90;;;;;;5052067;28;20519;-77
2023/10/28 04:09:46;;;;;;;8.70;2.70;;;10.90;99.90;;;;;;5041295;28;20025;-76
2023/10/28 04:12:12;;;;;;;7.45;2.60;;;10.90;99.90;;;;;;5057790;28;20036;-76
2023/10/28 04:14:38;;;;;;;10.27;2.60;;;10.90;99.90;;;;;;5063543;28;20028;-76
2023/10/28 04:17:03;;;;;;;6.00;2.70;;;10.90;99.90;;;;;;5059154;28;20048;-76
2023/10/28 04:19:29;;;;;;;8.75;2.55;;;10.90;99.90;;;;;;5054048;28;20021;-78
2023/10/28 04:21:55;;;;;;;6.97;2.65;;;10.90;99.90;;;;;;5060101;28;20023;-76
2023/10/28 04:24:22;;;;;;;5.78;2.70;;;10.90;99.90;;;;;;5061962;28;20029;-76
2023/10/28 04:26:47;;;;;;;7.45;2.78;;;10.90;99.90;;;;;;5040971;28;20024;-77
2023/10/28 04:29:13;;;;;;;8.07;3.13;;;10.90;99.90;;;;;;5057786;28;20394;-77
2023/10/28 04:31:39;;;;;;;7.00;3.22;;;10.90;99.90;;;;;;5062924;28;20021;-78
2023/10/28 04:34:05;;;;;;;9.70;3.63;;;10.90;99.90;;;;;;5059446;28;20024;-78
2023/10/28 04:36:31;;;;;;;6.63;3.45;;;10.90;99.90;;;;;;5053185;28;20057;-76
2023/10/28 04:38:57;;;;;;;11.98;3.42;;;10.90;99.90;;;;;;5061271;28;20017;-76
2023/10/28 04:41:23;;;;;;;11.50;3.55;;;10.90;99.90;;;;;;5062828;28;20031;-76
2023/10/28 04:43:49;;;;;;;7.65;3.30;;;10.90;99.90;;;;;;5055582;28;20024;-76
2023/10/28 04:46:15;;;;;;;7.35;3.05;;;10.90;99.90;;;;;;5062670;28;20575;-77
2023/10/28 04:48:42;;;;;;;7.80;3.15;;;10.90;99.90;;;;;;5055144;28;20029;-76
2023/10/28 04:51:08;;;;;;;6.93;3.17;;;10.90;99.90;;;;;;5062131;28;20032;-76
2023/10/28 04:53:34;;;;;;;6.40;3.22;;;10.90;99.90;;;;;;5064964;28;20032;-77
2023/10/28 04:56:00;;;;;;;8.93;3.13;;;10.90;99.90;;;;;;5054027;28;20048;-76
2023/10/28 04:58:27;;;;;;;8.93;3.53;;;10.90;99.90;;;;;;5056984;28;20052;-77
2023/10/28 05:00:53;;;;;;;11.98;3.70;;;10.90;99.90;;;;;;5061010;28;20049;-76
2023/10/28 05:03:19;;;;;;;7.97;3.20;;;10.90;99.90;;;;;;5056186;28;20497;-77
2023/10/28 05:05:46;;;;;;;8.50;3.80;;;10.90;99.90;;;;;;5054460;28;20016;-76
2023/10/28 05:08:11;;;;;;;8.00;3.25;;;10.90;99.90;;;;;;5060600;28;20052;-76
2023/10/28 05:10:37;;;;;;;6.57;3.20;;;10.90;99.90;;;;;;5059643;28;20437;-75
2023/10/28 05:13:03;;;;;;;7.43;3.03;;;10.90;99.90;;;;;;5053211;28;20016;-76
2023/10/28 05:15:29;;;;;;;6.53;2.83;;;11.00;99.90;;;;;;5057386;28;20021;-76
2023/10/28 05:17:54;;;;;;;7.35;3.13;;;11.00;99.90;;;;;;5062652;28;20021;-76
2023/10/28 05:20:21;;;;;;;7.03;3.22;;;11.00;99.90;;;;;;5056319;28;20029;-76
2023/10/28 05:22:46;;;;;;;6.47;3.08;;;11.00;99.90;;;;;;5053841;28;20146;-76
2023/10/28 05:25:12;;;;;;;8.20;3.13;;;11.00;99.90;;;;;;5055507;28;20047;-77
2023/10/28 05:27:38;;;;;;;6.60;2.38;;;11.00;99.90;;;;;;5055771;28;20815;-79
2023/10/28 05:30:04;;;;;;;6.18;2.85;;;11.00;99.90;;;;;;5064804;28;20036;-76
2023/10/28 05:32:30;;;;;;;8.43;3.90;;;11.00;99.90;;;;;;5057305;28;20066;-76
2023/10/28 05:34:56;;;;;;;7.85;3.47;;;11.10;99.90;;;;;;5060911;28;20025;-77
2023/10/28 05:37:22;;;;;;;6.97;3.63;;;11.10;99.90;;;;;;5056885;28;20496;-77
2023/10/28 05:39:50;;;;;;;8.38;3.70;;;11.10;99.90;;;;;;5052332;28;20056;-76
2023/10/28 05:42:16;;;;;;;10.68;3.78;;;11.10;99.90;;;;;;5060469;28;20020;-76
2023/10/28 05:44:43;;;;;;;9.60;3.83;;;11.10;99.90;;;;;;5056437;28;20021;-76
2023/10/28 05:47:11;;;;;;;6.93;3.90;;;11.10;99.90;;;;;;5051659;28;20067;-77
2023/10/28 05:49:37;;;;;;;7.88;3.78;;;11.10;99.90;;;;;;5056008;28;20533;-76
2023/10/28 05:52:03;;;;;;;10.23;4.10;;;11.10;99.90;;;;;;5061448;28;20021;-76
2023/10/28 05:54:30;;;;;;;8.20;3.80;;;11.00;99.90;;;;;;5038505;28;20020;-76
2023/10/28 05:56:57;;;;;;;12.00;4.57;;;11.10;99.90;;;;;;5053303;28;20145;-76
2023/10/28 05:59:22;;;;;;;11.05;4.40;;;11.10;99.90;;;;;;5061447;28;20490;-77
2023/10/28 06:01:48;;;;;;;11.68;3.78;;;11.10;99.90;;;;;;5057508;28;20081;-76
2023/10/28 06:04:14;;;;;;;14.40;4.20;;;11.10;99.90;;;;;;5053359;28;20501;-76
2023/10/28 06:06:40;;;;;;;9.25;4.00;;;11.00;99.90;;;;;;5058628;28;20029;-77
2023/10/28 06:09:09;;;;;;;8.27;3.70;;;11.00;99.90;;;;;;5061495;28;20020;-76
2023/10/28 06:11:35;;;;;;;9.32;3.78;;;11.00;99.90;;;;;;5054130;28;20422;-77
2023/10/28 06:14:01;;;;;;;8.00;3.70;;;11.00;99.90;;;;;;5054863;28;20547;-76
2023/10/28 06:16:27;;;;;;;11.63;3.90;;;11.00;99.90;;;;;;5060913;28;20532;-77
2023/10/28 06:18:52;;;;;;;8.80;3.35;;;11.00;99.90;;;;;;5035416;28;20027;-77
2023/10/28 06:21:18;;;;;;;10.77;3.53;;;11.00;99.90;;;;;;5057597;28;20492;-76
2023/10/28 06:23:43;;;;;;;9.98;3.78;;;11.00;99.90;;;;;;5054851;28;20017;-77
2023/10/28 06:26:10;;;;;;;10.98;4.10;;;11.00;99.90;;;;;;5052701;28;20561;-76
2023/10/28 06:28:37;;;;;;;10.10;4.05;;;11.00;99.90;;;;;;5060624;28;20056;-76
2023/10/28 06:31:03;;;;;;;8.98;3.92;;;11.00;99.90;;;;;;5057518;28;20032;-76
2023/10/28 06:33:29;;;;;;;11.88;4.90;;;11.00;99.90;;;;;;5051400;28;20388;-76
2023/10/28 06:35:55;;;;;;;8.60;3.72;;;11.00;99.90;;;;;;5051634;28;20029;-77
2023/10/28 06:38:21;;;;;;;11.38;4.00;;;11.00;99.90;;;;;;5057903;28;20021;-77
2023/10/28 06:40:47;;;;;;;10.90;4.13;;;11.00;99.90;;;;;;5055538;28;20012;-77
2023/10/28 06:43:17;;;;;;;11.20;3.90;;;11.00;99.90;;;;;;5053137;28;20349;-76
2023/10/28 06:45:43;;;;;;;7.28;3.70;;;11.00;99.90;;;;;;5060876;28;20020;-76
2023/10/28 06:48:12;;;;;;;8.27;3.65;;;11.00;99.90;;;;;;5053190;28;20053;-76
2023/10/28 06:50:38;;;;;;;7.57;3.47;;;11.00;99.90;;;;;;5038722;28;20028;-76
2023/10/28 06:53:03;;;;;;;11.48;4.20;;;11.00;99.90;;;;;;5061518;28;20020;-76
2023/10/28 06:55:29;;;;;;;11.55;3.88;;;11.00;99.90;;;;;;5052487;28;20027;-76
2023/10/28 06:57:55;;;;;;;11.00;3.58;;;11.00;99.90;;;;;;5060272;28;20554;-76
2023/10/28 07:00:29;;;;;;;8.57;4.15;;;11.00;99.90;;;;;;5058843;28;20095;-76
2023/10/28 07:02:55;;;;;;;8.77;3.42;;;11.00;99.90;;;;;;5052562;28;20024;-76
2023/10/28 07:05:24;;;;;;;8.73;3.17;;;11.00;99.90;;;;;;5054754;28;20032;-76
2023/10/28 07:07:50;;;;;;;12.50;3.28;;;11.00;99.90;;;;;;5048153;28;20032;-76
2023/10/28 07:10:16;;;;;;;10.63;3.72;;;11.10;99.90;;;;;;5047077;28;20704;-75
2023/10/28 07:12:42;;;;;;;10.45;3.03;;;11.00;99.90;;;;;;5060373;28;20541;-76
2023/10/28 07:15:10;;;;;;;10.75;3.58;;;11.10;99.90;;;;;;5047099;28;20037;-76
2023/10/28 07:17:36;;;;;;;9.57;3.30;;;11.10;99.90;;;;;;5051649;28;20036;-75
2023/10/28 07:20:03;;;;;;;10.30;3.40;;;11.10;99.90;;;;;;5060200;28;20381;-76
2023/10/28 07:22:28;;;;;;;6.50;2.92;;;11.10;99.90;;;;;;5045386;28;20095;-76
2023/10/28 07:24:54;;;;;;;6.82;3.00;;;11.10;99.90;;;;;;5041989;28;20509;-76
2023/10/28 07:27:23;;;;;;;10.82;3.10;;;11.10;99.90;;;;;;5034476;28;20475;-75
2023/10/28 07:29:49;;;;;;;7.38;2.90;;;11.10;99.90;;;;;;5056813;28;20056;-76
2023/10/28 07:32:15;;;;;;;9.02;3.05;;;11.20;99.90;;;;;;5058312;28;20102;-75
2023/10/28 07:34:40;;;;;;;9.25;3.33;;;11.20;99.90;;;;;;5043463;28;20082;-75
2023/10/28 07:37:06;;;;;;;9.45;3.03;;;11.20;99.90;;;;;;5042838;28;20695;-76
2023/10/28 07:39:33;;;;;;;6.75;3.40;;;11.20;99.90;;;;;;5057000;28;20503;-76
2023/10/28 07:41:59;;;;;;;9.10;3.88;;;11.20;99.90;;;;;;5056111;28;20036;-75
2023/10/28 07:44:24;;;;;;;9.02;3.30;;;11.20;99.90;;;;;;5049680;28;20025;-76
2023/10/28 07:46:50;;;;;;;9.20;3.47;;;11.30;99.90;;;;;;5049191;28;20046;-76
2023/10/28 07:49:16;;;;;;;10.63;3.13;;;11.30;99.90;;;;;;5052039;28;20024;-76
2023/10/28 07:51:42;;;;;;;6.70;3.10;;;11.30;99.90;;;;;;5053220;28;20082;-76
2023/10/28 07:54:08;;;;;;;9.75;3.03;;;11.30;99.90;;;;;;5062520;28;20028;-75
2023/10/28 07:56:34;;;;;;;10.75;3.40;;;11.30;99.90;;;;;;5058543;28;20560;-75
2023/10/28 07:59:00;;;;;;;14.05;2.80;;;11.30;99.90;;;;;;5054520;28;20383;-75
2023/10/28 08:01:29;;;;;;;9.98;3.50;;;11.40;99.90;;;;;;5060865;28;20446;-75
2023/10/28 08:03:56;;;;;;;8.52;3.17;;;11.40;99.90;;;;;;5062266;28;20020;-76
2023/10/28 08:06:23;;;;;;;6.57;2.80;;;11.40;99.90;;;;;;5055043;28;20032;-75
2023/10/28 08:08:48;;;;;;;10.23;3.08;;;11.40;99.90;;;;;;5056606;28;20420;-75
2023/10/28 08:11:16;;;;;;;7.93;3.03;;;11.50;99.90;;;;;;5063524;28;20021;-76
2023/10/28 08:13:42;;;;;;;7.75;3.00;;;11.50;99.90;;;;;;5059931;28;20024;-75
2023/10/28 08:16:12;;;;;;;7.88;3.00;;;11.50;99.90;;;;;;5054912;28;20488;-75
2023/10/28 08:18:41;;;;;;;10.80;3.53;;;11.50;99.90;;;;;;5059471;28;20021;-75
2023/10/28 08:21:07;;;;;;;8.32;3.60;;;11.60;99.90;;;;;;5049746;28;20063;-76
2023/10/28 08:23:33;;;;;;;9.73;3.08;;;11.60;99.90;;;;;;5062119;28;20013;-76
2023/10/28 08:25:59;;;;;;;9.02;2.70;;;11.60;99.90;;;;;;5034670;28;20041;-76
2023/10/28 08:28:28;;;;;;;10.93;2.95;;;11.60;99.90;;;;;;5065049;28;20367;-76
2023/10/28 08:30:54;;;;;;;7.50;3.33;;;11.60;99.90;;;;;;5066167;28;20093;-76
2023/10/28 08:33:20;;;;;;;7.65;2.83;;;11.70;99.90;;;;;;5061425;28;20136;-76
2023/10/28 08:35:47;;;;;;;7.75;2.75;;;11.70;99.90;;;;;;5064391;28;20137;-76
2023/10/28 08:38:16;;;;;;;5.47;2.92;;;11.70;99.90;;;;;;5057892;28;20017;-76
2023/10/28 08:40:46;;;;;;;9.13;2.83;;;11.70;99.90;;;;;;5057532;28;20021;-76
2023/10/28 08:43:19;;;;;;;8.77;2.78;;;11.80;99.90;;;;;;5049864;28;20031;-75
2023/10/28 08:45:46;;;;;;;6.43;2.63;;;11.80;99.90;;;;;;5057710;28;20029;-76
2023/10/28 08:48:15;;;;;;;10.65;2.63;;;11.80;99.90;;;;;;5054910;28;20021;-76
2023/10/28 08:50:46;;;;;;;8.30;2.42;;;11.80;99.90;;;;;;5052978;28;20330;-76
2023/10/28 08:53:16;;;;;;;13.85;2.90;;;11.90;99.90;;;;;;5050859;28;20029;-76
2023/10/28 08:55:44;;;;;;;6.65;2.80;;;11.90;99.90;;;;;;5059839;28;20564;-79
2023/10/28 08:58:10;;;;;;;11.95;2.90;;;11.90;99.90;;;;;;5051839;28;20266;-77
2023/10/28 09:00:36;;;;;;;14.60;3.65;;;12.00;99.90;;;;;;5062574;28;20561;-77
2023/10/28 09:03:06;;;;;;;7.90;2.67;;;12.00;99.90;;;;;;5050289;28;20043;-76
2023/10/28 09:05:31;;;;;;;8.30;2.63;;;12.00;99.90;;;;;;5041264;28;20053;-76
2023/10/28 09:07:57;;;;;;;9.02;2.88;;;12.10;99.90;;;;;;5039513;28;20057;-76
2023/10/28 09:10:24;;;;;;;9.85;2.72;;;12.10;99.90;;;;;;5038179;28;20113;-76
2023/10/28 09:12:52;;;;;;;10.68;3.20;;;12.20;99.90;;;;;;5048435;28;20021;-77
2023/10/28 09:15:18;;;;;;;9.13;2.78;;;12.20;99.90;;;;;;5048934;28;20103;-76
2023/10/28 09:17:44;;;;;;;9.40;2.85;;;12.30;99.90;;;;;;5049558;28;20119;-76
2023/10/28 09:20:10;;;;;;;11.38;3.42;;;12.30;99.90;;;;;;5041586;28;20993;-77
2023/10/28 09:22:42;;;;;;;8.38;3.25;;;12.40;99.90;;;;;;5069939;28;20478;-77
2023/10/28 09:25:11;;;;;;;9.45;2.70;;;12.50;99.90;;;;;;5048995;28;20031;-75
2023/10/28 09:27:37;;;;;;;8.25;2.78;;;12.60;99.90;;;;;;5039667;28;20029;-77
2023/10/28 09:30:05;;;;;;;8.55;3.20;;;12.60;99.90;;;;;;5047208;28;20558;-76
2023/10/28 09:32:33;;;;;;;8.82;2.95;;;12.60;99.90;;;;;;5051228;28;20025;-76
2023/10/28 09:35:05;;;;;;;10.30;3.22;;;12.60;99.90;;;;;;5057872;28;20048;-75
2023/10/28 09:37:33;;;;;;;12.00;2.50;;;12.70;99.90;;;;;;5048954;28;20119;-78
2023/10/28 09:40:00;;;;;;;6.25;2.17;;;12.70;99.90;;;;;;5050789;28;20145;-76
2023/10/28 09:42:31;;;;;;;8.40;2.50;;;12.70;99.90;;;;;;5045573;28;20025;-77
2023/10/28 09:45:03;;;;;;;11.25;2.65;;;12.70;99.90;;;;;;5045817;28;20025;-79
2023/10/28 09:47:55;;;;;;;8.38;2.15;;;12.70;99.90;;;;;;5054892;28;20024;-77
2023/10/28 09:50:22;;;;;;;8.77;2.35;;;12.70;99.90;;;;;;5051470;28;20039;-77
2023/10/28 09:52:53;;;;;;;8.30;2.47;;;12.80;99.90;;;;;;5052314;28;20040;-76
2023/10/28 09:55:23;;;;;;;9.73;2.30;;;12.80;99.90;;;;;;5060385;28;20027;-77
2023/10/28 09:58:04;;;;;;;8.35;2.50;;;12.90;99.90;;;;;;5049170;28;20151;-77
2023/10/28 10:00:30;;;;;;;;;;;12.90;99.90;;;;;;5045870;28;20029;-76
2023/10/28 10:03:06;;;;;;;7.60;2.05;;;12.90;99.90;;;;;;5059797;28;19912;-77
2023/10/28 10:05:38;;;;;;;6.13;2.42;;;13.00;99.90;;;;;;5047709;28;20029;-77
2023/10/28 10:08:03;;;;;;;7.53;2.35;;;13.00;99.90;;;;;;5058602;28;20013;-80
2023/10/28 10:10:29;;;;;;;5.00;1.90;;;13.00;99.90;;;;;;5056314;28;20034;-77
2023/10/28 10:13:02;;;;;;;7.72;2.65;;;13.00;99.90;;;;;;5049703;28;20472;-77
2023/10/28 10:15:32;;;;;;;10.93;2.38;;;13.00;99.90;;;;;;5055215;28;20116;-77
2023/10/28 10:18:21;;;;;;;8.63;2.33;;;13.10;99.90;;;;;;5059099;28;20020;-76
2023/10/28 10:20:47;;;;;;;8.50;2.17;;;13.20;99.90;;;;;;5058329;28;20086;-77
2023/10/28 10:23:14;;;;;;;5.13;1.85;;;13.20;99.90;;;;;;5053231;28;20013;-77
2023/10/28 10:25:46;;;;;;;8.57;2.58;;;13.30;99.90;;;;;;5056658;28;20024;-77
2023/10/28 10:28:18;;;;;;;6.63;1.73;;;13.40;99.90;;;;;;5061367;28;20021;-77
2023/10/28 10:30:44;;;;;;;6.40;1.80;;;13.40;99.90;;;;;;5056338;28;20420;-77
2023/10/28 10:33:09;;;;;;;6.53;1.80;;;13.40;99.90;;;;;;5052724;28;20013;-78
2023/10/28 10:35:36;;;;;;;7.65;2.15;;;13.50;99.90;;;;;;5058477;28;20112;-77
2023/10/28 10:38:07;;;;;;;5.18;2.13;;;13.50;99.90;;;;;;5059514;28;20028;-78
2023/10/28 10:40:34;;;;;;;7.22;1.80;;;13.50;99.90;;;;;;5052853;28;20024;-77
2023/10/28 10:43:10;;;;;;;7.68;2.10;;;13.50;99.90;;;;;;5038602;28;20021;-78
2023/10/28 10:45:36;;;;;;;7.65;1.67;;;13.50;99.90;;;;;;5052388;28;20024;-78
2023/10/28 10:48:08;;;;;;;11.02;2.40;;;13.50;99.90;;;;;;5047915;28;20068;-75
2023/10/28 10:50:38;;;;;;;6.75;1.70;;;13.50;99.90;;;;;;5048104;28;20028;-76
2023/10/28 10:53:04;;;;;;;6.65;1.80;;;13.50;99.90;;;;;;5058319;28;20059;-77
2023/10/28 10:55:31;;;;;;;10.82;2.33;;;13.50;99.90;;;;;;5052537;28;20045;-77
2023/10/28 10:57:57;;;;;;;9.23;1.60;;;13.50;99.90;;;;;;5046151;28;20073;-78
2023/10/28 11:00:24;;;;;;;7.40;2.00;;;13.50;99.90;;;;;;5044048;28;20061;-77
2023/10/28 11:02:50;;;;;;;7.43;2.25;;;13.60;99.90;;;;;;5057929;28;20418;-77
2023/10/28 11:05:17;;;;;;;5.60;1.80;;;13.60;99.90;;;;;;5056811;28;20048;-78
2023/10/28 11:07:43;;;;;;;6.85;1.40;;;13.60;99.90;;;;;;5047258;28;20028;-76
2023/10/28 11:10:10;;;;;;;6.80;1.83;;;13.60;99.90;;;;;;5035252;28;20029;-83
2023/10/28 11:12:37;;;;;;;6.03;2.20;;;13.70;99.90;;;;;;5038024;28;20116;-78
2023/10/28 11:15:04;;;;;;;7.53;1.55;;;13.70;99.90;;;;;;5048065;28;20051;-79
2023/10/28 11:17:30;;;;;;;6.55;1.98;;;13.70;99.90;;;;;;5035962;28;20033;-77
2023/10/28 11:20:00;;;;;;;4.90;1.60;;;13.70;99.90;;;;;;5043016;28;20020;-77
2023/10/28 11:22:26;;;;;;;8.38;2.50;;;13.70;99.90;;;;;;5041856;28;20422;-78
2023/10/28 11:24:55;;;;;;;6.93;2.13;;;13.70;99.90;;;;;;5054227;28;20035;-82
2023/10/28 11:27:23;;;;;;;9.18;2.50;;;13.70;99.90;;;;;;5052036;28;20036;-78
2023/10/28 11:29:53;;;;;;;8.70;1.98;;;13.80;99.90;;;;;;5048970;28;20116;-78
2023/10/28 11:32:22;;;;;;;6.43;1.73;;;13.80;99.90;;;;;;5056269;28;20028;-79
2023/10/28 11:34:48;;;;;;;6.57;1.70;;;13.80;99.90;;;;;;5050598;28;20135;-79
2023/10/28 11:37:14;;;;;;;7.07;1.88;;;13.80;99.90;;;;;;5039707;28;20031;-77
2023/10/28 11:39:41;;;;;;;9.55;2.47;;;13.90;99.90;;;;;;5051199;28;20091;-77
2023/10/28 11:42:09;;;;;;;5.25;1.40;;;13.90;99.90;;;;;;5044568;28;20020;-75
2023/10/28 11:44:35;;;;;;;5.07;1.63;;;13.90;99.90;;;;;;5063621;28;20096;-77
2023/10/28 11:47:01;;;;;;;7.43;1.70;;;13.90;99.90;;;;;;5065260;28;20099;-76
2023/10/28 11:49:26;;;;;;;5.97;1.88;;;13.90;99.90;;;;;;5059882;28;20669;-77
2023/10/28 11:51:52;;;;;;;7.88;1.63;;;14.00;99.90;;;;;;5058929;28;20028;-76
2023/10/28 11:54:18;;;;;;;9.75;2.35;;;14.00;99.90;;;;;;5053522;28;20047;-77
2023/10/28 11:56:43;;;;;;;6.93;1.73;;;14.10;99.90;;;;;;5041870;28;20144;-77
2023/10/28 11:59:09;;;;;;;6.90;1.80;;;14.10;99.90;;;;;;5052267;28;20499;-78
2023/10/28 12:01:36;;;;;;;15.57;2.13;;;14.10;99.90;;;;;;5038175;28;20020;-77
2023/10/28 12:04:07;;;;;;;6.85;1.75;;;14.10;99.90;;;;;;5047977;28;20025;-77
2023/10/28 12:06:33;;;;;;;7.63;1.90;;;14.30;99.90;;;;;;5039544;28;20017;-77
2023/10/28 12:09:05;;;;;;;7.63;1.80;;;14.30;99.90;;;;;;5058861;28;20048;-78
2023/10/28 12:11:31;;;;;;;7.13;1.83;;;14.50;99.90;;;;;;5043404;23;20047;-77
2023/10/28 12:13:59;;;;;;;10.25;2.22;;;14.60;99.90;;;;;;5023908;28;20057;-77
2023/10/28 12:16:25;;;;;;;9.70;2.00;;;14.60;99.90;;;;;;5002949;28;20025;-77
2023/10/28 12:18:50;;;;;;;8.48;2.17;;;14.60;99.90;;;;;;5016881;23;20103;-77
2023/10/28 12:21:17;;;;;;;10.00;1.90;;;14.60;99.90;;;;;;5039623;28;20474;-77
2023/10/28 12:23:44;;;;;;;7.82;1.73;;;14.70;99.90;;;;;;5042483;28;20037;-77
2023/10/28 12:26:11;;;;;;;7.40;1.92;;;14.80;99.90;;;;;;5047572;28;20033;-77
2023/10/28 12:28:37;;;;;;;10.90;2.42;;;14.80;99.90;;;;;;5038367;28;20032;-78
2023/10/28 12:31:03;;;;;;;7.78;2.22;;;14.90;99.90;;;;;;5056081;28;20530;-77
2023/10/28 12:33:29;;;;;;;9.18;2.25;;;15.00;99.90;;;;;;5045725;28;20079;-77
2023/10/28 12:35:56;;;;;;;11.70;2.20;;;15.00;99.90;;;;;;5053121;28;20063;-77
2023/10/28 12:38:21;;;;;;;7.28;1.85;;;15.00;99.90;;;;;;5047197;28;20056;-77
2023/10/28 12:40:47;;;;;;;13.00;2.20;;;15.10;99.90;;;;;;5045287;28;20057;-78